ETC weather

Tarboro Edgecombe Airport
Tarboro, North Carolina, United States

Public forecast

Using degrees Fahrenheit for public forecast. Weather courtesy of forecast.io.

METAR (pilot weather report)

Retrieved 2019/09/18 18:35 UTC (7 minutes ago):

KETC 181835Z AUTO 03010KT 10SM SCT055 25/12 A3013 RMK AO2 PWINO T02480123

TAF (pilot weather forecast)

Closest forecast is Rocky Mount Wilson Regional Airport, 17.5 nm (32.4 km) WSW. Retrieved 2019/09/18 18:30 UTC (12 minutes ago):

TAF KRWI 181728Z 1818/1918 04005KT P6SM SCT060 TEMPO 1908/1912 SCT020 FM191500 04010KT P6SM SKC